Time;durP1;ratioP1;P1;durP2;ratioP2;P2;SDS_P1;SDS_P2;PMS_P1;PMS_P2;Temp;Humidity;BMP_temperature;BMP_pressure;BME280_temperature;BME280_humidity;BME280_pressure;Samples;Min_cycle;Max_cycle;Signal;HPM_P1;HPM_P2
2022/04/24 00:00:53;;;;;;;6.65;5.80;;;;;;;9.22;87.96;100805.22;4948342;28;20409;-81
2022/04/24 00:03:22;;;;;;;6.88;6.18;;;;;;;9.23;88.26;100804.38;4938437;29;20300;-82
2022/04/24 00:05:50;;;;;;;8.38;6.10;;;;;;;9.21;88.29;100802.63;4947599;28;20055;-82
2022/04/24 00:08:18;;;;;;;9.13;6.03;;;;;;;9.16;88.45;100792.91;4926142;29;20048;-82
2022/04/24 00:10:47;;;;;;;6.63;6.03;;;;;;;9.15;88.57;100806.09;4942166;28;20039;-82
2022/04/24 00:13:17;;;;;;;6.75;6.13;;;;;;;9.12;88.90;100799.03;4926777;28;20059;-82
2022/04/24 00:15:46;;;;;;;6.75;6.15;;;;;;;9.12;88.78;100791.13;4948754;28;20051;-81
2022/04/24 00:18:15;;;;;;;7.97;5.75;;;;;;;9.11;89.17;100796.38;4931084;29;20492;-82
2022/04/24 00:20:44;;;;;;;6.07;5.47;;;;;;;9.09;89.10;100795.50;4947170;29;20059;-83
2022/04/24 00:23:12;;;;;;;7.50;6.65;;;;;;;9.04;89.50;100800.72;4948245;28;20055;-82
2022/04/24 00:25:40;;;;;;;8.93;6.43;;;;;;;9.00;88.64;100798.94;4961564;28;20162;-81
2022/04/24 00:28:09;;;;;;;6.82;5.68;;;;;;;8.98;89.12;100791.03;4940956;28;20044;-81
2022/04/24 00:30:37;;;;;;;6.28;5.78;;;;;;;8.96;89.02;100784.00;4927036;29;20043;-83
2022/04/24 00:33:06;;;;;;;10.27;6.05;;;;;;;8.95;89.46;100792.75;4948914;28;20524;-83
2022/04/24 00:35:34;;;;;;;6.72;6.05;;;;;;;8.92;89.65;100787.47;4930625;29;20058;-81
2022/04/24 00:38:02;;;;;;;7.63;6.35;;;;;;;8.91;89.17;100788.34;4930699;29;20051;-81
2022/04/24 00:40:32;;;;;;;8.70;5.75;;;;;;;8.88;89.51;100783.91;4971965;28;20705;-83
2022/04/24 00:43:00;;;;;;;7.72;6.47;;;;;;;8.86;89.47;100785.66;4928959;28;20071;-82
2022/04/24 00:45:54;;;;;;;6.82;6.13;;;;;;;8.85;89.65;100778.66;4932017;29;20032;-83
2022/04/24 00:48:23;;;;;;;6.75;5.75;;;;;;;8.83;90.12;100776.84;4944462;28;20048;-82
2022/04/24 00:51:12;;;;;;;7.13;6.13;;;;;;;8.80;89.68;100774.22;4931938;29;20044;-81
2022/04/24 00:53:41;;;;;;;8.10;6.35;;;;;;;8.77;90.22;100781.22;4947855;28;20048;-80
2022/04/24 00:56:09;;;;;;;6.63;5.65;;;;;;;8.76;90.13;100778.56;4945553;28;20048;-82
2022/04/24 00:58:38;;;;;;;7.38;6.68;;;;;;;8.74;90.14;100778.53;4919927;28;20529;-83
2022/04/24 01:01:07;;;;;;;7.35;6.25;;;;;;;8.72;89.97;100782.03;4962295;28;20043;-82
2022/04/24 01:03:37;;;;;;;9.88;6.90;;;;;;;8.71;90.21;100777.63;4928628;29;20143;-83
2022/04/24 01:06:10;;;;;;;7.63;6.63;;;;;;;8.69;89.78;100771.47;4960500;28;20055;-82
2022/04/24 01:08:39;;;;;;;6.90;5.78;;;;;;;8.67;91.52;100773.22;4930594;29;20074;-81
2022/04/24 01:11:07;;;;;;;10.43;6.13;;;;;;;8.64;90.41;100767.91;4929891;29;20044;-82
2022/04/24 01:13:36;;;;;;;7.25;6.55;;;;;;;8.61;90.25;100778.41;4955152;28;20431;-82
2022/04/24 01:16:04;;;;;;;7.25;6.65;;;;;;;8.59;90.81;100778.41;4909285;29;20285;-84
2022/04/24 01:18:33;;;;;;;8.23;6.13;;;;;;;8.58;90.89;100788.03;4932008;29;20082;-83
2022/04/24 01:21:08;;;;;;;7.72;6.75;;;;;;;8.56;90.45;100779.25;4948051;28;20051;-81
2022/04/24 01:23:38;;;;;;;7.05;6.22;;;;;;;8.56;91.27;100784.50;4962646;28;20044;-82
2022/04/24 01:26:06;;;;;;;7.93;7.13;;;;;;;8.53;91.17;100768.72;4964050;28;20047;-82
2022/04/24 01:28:35;;;;;;;7.40;6.47;;;;;;;8.50;91.31;100776.53;4955166;28;20451;-82
2022/04/24 01:31:04;;;;;;;8.15;7.18;;;;;;;8.43;91.67;100776.47;4897295;29;20501;-82
2022/04/24 01:33:32;;;;;;;7.55;6.82;;;;;;;8.36;91.66;100773.75;4977300;28;20032;-82
2022/04/24 01:36:01;;;;;;;10.18;6.47;;;;;;;8.33;92.08;100778.06;4943987;29;20052;-82
2022/04/24 01:38:42;;;;;;;6.18;5.68;;;;;;;8.29;92.09;100776.28;4947281;28;20158;-82
2022/04/24 01:41:11;;;;;;;7.68;6.88;;;;;;;8.26;92.35;100773.63;4966123;28;20059;-82
2022/04/24 01:43:39;;;;;;;7.45;6.75;;;;;;;8.24;92.37;100776.25;4927102;29;20040;-82
2022/04/24 01:46:09;;;;;;;6.57;5.95;;;;;;;8.22;92.25;100774.44;4905888;28;20843;-82
2022/04/24 01:48:37;;;;;;;8.45;6.80;;;;;;;8.18;92.60;100774.44;4961155;28;20413;-82
2022/04/24 01:51:07;;;;;;;8.07;6.57;;;;;;;8.16;93.00;100770.00;4945456;29;20565;-82
2022/04/24 01:53:36;;;;;;;;;;;;;;;8.13;94.89;100775.25;4973724;28;20500;-82
2022/04/24 01:56:06;;;;;;;9.35;6.80;;;;;;;8.06;93.30;100769.03;4972515;28;20227;-81
2022/04/24 01:58:37;;;;;;;7.90;6.63;;;;;;;8.03;93.67;100775.97;4979684;28;20120;-82
2022/04/24 02:01:06;;;;;;;8.43;7.53;;;;;;;8.00;93.71;100777.69;4977407;28;20035;-82
2022/04/24 02:03:35;;;;;;;8.43;7.07;;;;;;;7.98;94.35;100784.69;4916567;29;20058;-82
2022/04/24 02:06:05;;;;;;;8.52;6.95;;;;;;;7.95;94.69;100776.75;4932976;29;20056;-82
2022/04/24 02:08:37;;;;;;;11.75;6.57;;;;;;;7.95;94.52;100782.00;4968850;28;20071;-82
2022/04/24 02:11:06;;;;;;;8.10;7.00;;;;;;;7.93;94.52;100772.34;4949755;28;20279;-81
2022/04/24 02:13:35;;;;;;;7.93;6.53;;;;;;;7.89;95.08;100778.44;4947143;28;20052;-84
2022/04/24 02:16:04;;;;;;;7.18;6.47;;;;;;;7.89;95.05;100778.44;4948197;28;20271;-82
2022/04/24 02:18:33;;;;;;;8.07;6.72;;;;;;;7.84;95.47;100772.22;4944085;28;20397;-82
2022/04/24 02:21:01;;;;;;;8.13;6.32;;;;;;;7.80;95.35;100776.56;4958929;28;20055;-82
2022/04/24 02:23:30;;;;;;;7.78;6.97;;;;;;;7.76;96.22;100770.38;4951199;28;20036;-82
2022/04/24 02:25:58;;;;;;;8.32;7.53;;;;;;;7.72;96.55;100776.44;4914826;29;20056;-82
2022/04/24 02:28:27;;;;;;;8.13;6.57;;;;;;;7.71;96.51;100774.72;4949445;28;20052;-83
2022/04/24 02:30:55;;;;;;;9.07;7.07;;;;;;;7.69;97.16;100771.16;4928949;29;20551;-82
2022/04/24 02:33:24;;;;;;;7.35;6.70;;;;;;;7.68;96.62;100766.78;4945342;28;20044;-82
2022/04/24 02:35:52;;;;;;;9.70;7.88;;;;;;;7.67;97.05;100772.88;4961254;28;20047;-82
2022/04/24 02:38:20;;;;;;;7.65;6.85;;;;;;;7.64;97.37;100775.47;4950137;28;20059;-82
2022/04/24 02:40:49;;;;;;;14.63;7.05;;;;;;;7.61;97.39;100778.91;4963290;28;20055;-83
2022/04/24 02:43:17;;;;;;;12.15;7.30;;;;;;;7.59;98.15;100775.41;4977541;28;20058;-81
2022/04/24 02:45:46;;;;;;;8.13;6.93;;;;;;;7.55;97.97;100780.59;4931870;29;20036;-82
2022/04/24 02:48:18;;;;;;;8.32;6.60;;;;;;;7.53;98.04;100784.94;4934755;28;20047;-82
2022/04/24 02:50:46;;;;;;;8.60;7.18;;;;;;;7.53;98.15;100784.94;4933039;28;20050;-81
2022/04/24 02:53:15;;;;;;;7.63;6.82;;;;;;;7.47;98.76;100788.34;4950101;28;20032;-82
2022/04/24 02:55:43;;;;;;;7.70;6.68;;;;;;;7.42;98.85;100780.41;4929046;29;20051;-83
2022/04/24 02:58:11;;;;;;;9.07;7.38;;;;;;;7.38;98.84;100778.59;4929222;29;20537;-83
2022/04/24 03:00:42;;;;;;;8.20;7.18;;;;;;;7.39;99.09;100784.69;4957863;28;20047;-83
2022/04/24 03:03:12;;;;;;;8.57;7.43;;;;;;;7.38;99.45;100783.84;4915968;28;21711;-82
2022/04/24 03:05:40;;;;;;;7.68;6.88;;;;;;;7.36;99.84;100790.78;4931661;28;20058;-82
2022/04/24 03:08:10;;;;;;;8.32;7.53;;;;;;;7.31;99.76;100787.22;4962928;28;20074;-82
2022/04/24 03:10:38;;;;;;;9.18;7.30;;;;;;;7.32;99.89;100775.88;4963899;28;20047;-83
2022/04/24 03:13:06;;;;;;;8.27;6.95;;;;;;;7.31;100.00;100781.09;4947882;29;20074;-81
2022/04/24 03:15:36;;;;;;;8.80;7.90;;;;;;;7.29;100.00;100782.81;4933601;29;20040;-84
2022/04/24 03:18:05;;;;;;;11.07;7.40;;;;;;;7.28;100.00;100779.31;4941734;29;20249;-83
2022/04/24 03:20:34;;;;;;;8.90;7.38;;;;;;;7.26;100.00;100783.66;4945129;28;20397;-84
2022/04/24 03:23:02;;;;;;;7.65;6.55;;;;;;;7.25;100.00;100779.25;4961417;28;20151;-81
2022/04/24 03:25:31;;;;;;;7.82;6.82;;;;;;;7.24;100.00;100790.63;4945732;29;20077;-81
2022/04/24 03:27:59;;;;;;;8.68;6.93;;;;;;;7.21;100.00;100780.06;4963602;28;20443;-81
2022/04/24 03:30:28;;;;;;;7.90;6.72;;;;;;;7.19;100.00;100789.66;4941866;28;20040;-81
2022/04/24 03:32:57;;;;;;;8.98;6.70;;;;;;;7.18;100.00;100788.78;4955367;28;20043;-81
2022/04/24 03:35:26;;;;;;;6.93;6.25;;;;;;;7.16;100.00;100784.34;4918086;29;20050;-81
2022/04/24 03:37:54;;;;;;;9.10;7.40;;;;;;;7.15;100.00;100786.09;4961952;28;20044;-82
2022/04/24 03:40:24;;;;;;;7.88;7.13;;;;;;;7.14;100.00;100780.81;4949155;28;20051;-81
2022/04/24 03:42:52;;;;;;;7.32;6.60;;;;;;;7.13;100.00;100789.56;4930860;29;20070;-81
2022/04/24 03:45:21;;;;;;;7.93;7.13;;;;;;;7.11;100.00;100783.41;4965703;28;20070;-81
2022/04/24 03:47:51;;;;;;;8.18;6.72;;;;;;;7.10;100.00;100771.16;4931194;29;20540;-82
2022/04/24 03:50:20;;;;;;;;;;;;;;;7.09;100.00;100766.75;4933341;28;20051;-81
2022/04/24 03:52:48;;;;;;;11.52;6.88;;;;;;;7.08;100.00;100771.13;4962906;28;19923;-82
2022/04/24 03:55:17;;;;;;;8.30;7.50;;;;;;;7.07;100.00;100774.63;4933320;29;20513;-81
2022/04/24 03:57:45;;;;;;;9.63;7.50;;;;;;;7.06;100.00;100769.34;4945716;28;20044;-82
2022/04/24 04:00:14;;;;;;;8.45;7.65;;;;;;;7.03;100.00;100770.16;4962078;28;20043;-81
2022/04/24 04:02:44;;;;;;;10.38;7.95;;;;;;;7.01;100.00;100770.16;4931710;29;20056;-82
2022/04/24 04:05:16;;;;;;;9.07;8.13;;;;;;;7.01;100.00;100767.53;4909572;28;20417;-81
2022/04/24 04:07:45;;;;;;;10.05;8.38;;;;;;;7.01;100.00;100775.41;4946426;28;20059;-83
2022/04/24 04:10:13;;;;;;;13.52;8.27;;;;;;;7.02;100.00;100764.06;4948485;28;20036;-83
2022/04/24 04:12:41;;;;;;;8.75;7.63;;;;;;;7.02;100.00;100768.41;4946986;28;20509;-82
2022/04/24 04:15:10;;;;;;;9.15;8.20;;;;;;;7.01;100.00;100769.25;4948048;28;20270;-81
2022/04/24 04:17:38;;;;;;;10.43;8.68;;;;;;;7.01;100.00;100778.03;4963430;28;20040;-82
2022/04/24 04:20:11;;;;;;;11.30;9.15;;;;;;;7.01;100.00;100771.88;4911954;28;20701;-83
2022/04/24 04:22:48;;;;;;;9.85;8.75;;;;;;;7.02;100.00;100776.28;4931642;29;20048;-84
2022/04/24 04:25:17;;;;;;;8.75;7.85;;;;;;;7.05;100.00;100780.69;4947256;28;20044;-82
2022/04/24 04:27:45;;;;;;;11.75;9.80;;;;;;;7.06;100.00;100787.69;4962216;28;20411;-82
2022/04/24 04:30:14;;;;;;;12.13;9.15;;;;;;;7.08;100.00;100773.75;4915971;29;20428;-82
2022/04/24 04:32:43;;;;;;;14.40;9.88;;;;;;;7.13;100.00;100776.47;4938001;29;20051;-83
2022/04/24 04:35:12;;;;;;;10.55;8.85;;;;;;;7.15;100.00;100774.75;4948348;28;20058;-81
2022/04/24 04:37:40;;;;;;;10.55;9.10;;;;;;;7.16;100.00;100786.97;4908931;29;20048;-84
2022/04/24 04:40:10;;;;;;;10.77;9.27;;;;;;;7.19;100.00;100784.41;4964421;28;20260;-82
2022/04/24 04:42:39;;;;;;;14.70;8.95;;;;;;;7.23;100.00;100792.34;4963068;28;20040;-82
2022/04/24 04:45:08;;;;;;;14.48;9.95;;;;;;;7.34;100.00;100800.38;4945649;28;20044;-82
2022/04/24 04:47:36;;;;;;;12.05;8.38;;;;;;;7.58;100.00;100791.09;4946265;28;20524;-82
2022/04/24 04:50:05;;;;;;;13.75;8.38;;;;;;;7.81;100.00;100791.44;4949840;28;20627;-83
2022/04/24 04:52:35;;;;;;;11.02;8.68;;;;;;;8.00;100.00;100795.19;4945107;28;20019;-82
2022/04/24 04:55:04;;;;;;;11.70;8.40;;;;;;;8.02;100.00;100797.84;4947092;28;20048;-82
2022/04/24 04:57:33;;;;;;;11.73;7.88;;;;;;;8.00;100.00;100793.44;4960062;28;20063;-82
2022/04/24 05:00:06;;;;;;;10.93;8.07;;;;;;;7.98;100.00;100802.16;4942602;29;20325;-82
2022/04/24 05:02:38;;;;;;;11.07;8.18;;;;;;;7.95;100.00;100791.63;4971708;28;20040;-83
2022/04/24 05:05:09;;;;;;;11.98;6.93;;;;;;;7.92;100.00;100795.09;4959650;28;20048;-82
2022/04/24 05:07:37;;;;;;;9.50;7.47;;;;;;;7.91;100.00;100798.56;4956508;28;20054;-82
2022/04/24 05:10:07;;;;;;;16.27;7.80;;;;;;;7.92;100.00;100810.84;4951694;28;20043;-82
2022/04/24 05:12:36;;;;;;;8.60;6.35;;;;;;;7.90;100.00;100804.69;4931444;29;20071;-81
2022/04/24 05:15:07;;;;;;;10.60;6.68;;;;;;;7.89;100.00;100805.53;4947190;28;20058;-82
2022/04/24 05:17:36;;;;;;;12.93;6.93;;;;;;;7.92;100.00;100810.84;4947669;28;20047;-82
2022/04/24 05:20:07;;;;;;;10.95;7.20;;;;;;;7.93;100.00;100811.72;4961609;28;20572;-81
2022/04/24 05:22:36;;;;;;;;;;;;;;;7.95;100.00;100815.25;4947299;29;20055;-82
2022/04/24 05:25:06;;;;;;;9.70;6.68;;;;;;;7.96;100.00;100814.38;4942336;28;19926;-82
2022/04/24 05:27:36;;;;;;;8.03;7.23;;;;;;;7.95;100.00;100810.88;4965463;28;20036;-82
2022/04/24 05:30:07;;;;;;;10.18;7.70;;;;;;;7.99;100.00;100814.41;4915802;29;20310;-81
2022/04/24 05:32:49;;;;;;;9.93;6.90;;;;;;;8.00;100.00;100816.19;4931068;29;20056;-82
2022/04/24 05:35:18;;;;;;;7.75;6.18;;;;;;;8.05;100.00;100818.84;4959447;28;20502;-83
2022/04/24 05:37:47;;;;;;;9.13;6.90;;;;;;;8.07;100.00;100818.03;4954491;28;20040;-83
2022/04/24 05:40:16;;;;;;;7.43;6.50;;;;;;;8.12;100.00;100821.56;4916070;28;20054;-83
2022/04/24 05:42:51;;;;;;;8.52;6.22;;;;;;;8.15;100.00;100823.38;4965903;28;20405;-83
2022/04/24 05:45:22;;;;;;;12.32;7.78;;;;;;;8.23;100.00;100831.34;4964383;28;20040;-84
2022/04/24 05:47:54;;;;;;;7.05;5.85;;;;;;;8.47;100.00;100823.81;4948861;28;20054;-83
2022/04/24 05:50:23;;;;;;;9.98;6.20;;;;;;;8.65;100.00;100827.50;4936236;29;20056;-82
2022/04/24 05:52:56;;;;;;;5.93;5.32;;;;;;;8.71;100.00;100831.03;4964163;28;20371;-82
2022/04/24 05:55:25;;;;;;;10.13;5.95;;;;;;;8.82;100.00;100827.66;4982646;28;20048;-83
2022/04/24 05:57:54;;;;;;;8.80;5.38;;;;;;;9.06;100.00;100835.78;4945961;28;20268;-83
2022/04/24 06:00:23;;;;;;;8.15;5.00;;;;;;;9.64;100.00;100835.38;4941616;28;20055;-81
2022/04/24 06:02:52;;;;;;;10.90;5.20;;;;;;;10.07;100.00;100824.19;4963044;28;20043;-83
2022/04/24 06:05:22;;;;;;;5.10;4.50;;;;;;;10.32;100.00;100834.03;4933938;29;20052;-82
2022/04/24 06:07:51;;;;;;;6.55;4.43;;;;;;;10.30;97.29;100830.50;4948391;28;20429;-84
2022/04/24 06:10:19;;;;;;;9.07;3.88;;;;;;;10.24;96.79;100829.56;4936931;29;20043;-81
2022/04/24 06:12:47;;;;;;;6.22;4.35;;;;;;;10.17;96.57;100831.28;4944030;28;20056;-81
2022/04/24 06:15:20;;;;;;;6.70;3.47;;;;;;;10.12;95.97;100831.25;4966917;28;20048;-81
2022/04/24 06:17:52;;;;;;;8.63;3.53;;;;;;;10.05;95.16;100840.00;4933482;29;20050;-82
2022/04/24 06:20:22;;;;;;;5.70;3.53;;;;;;;10.05;95.27;100837.34;4967175;28;20071;-82
2022/04/24 06:22:59;;;;;;;6.57;3.88;;;;;;;10.03;94.51;100828.56;4917530;29;20172;-82
2022/04/24 06:25:33;;;;;;;5.03;3.83;;;;;;;10.08;94.71;100836.50;4936520;29;20052;-82
2022/04/24 06:28:04;;;;;;;4.82;3.13;;;;;;;10.12;94.96;100828.63;4925706;28;20052;-81
2022/04/24 06:30:40;;;;;;;4.65;3.17;;;;;;;10.23;94.57;100827.81;4960845;28;20040;-82
2022/04/24 06:33:10;;;;;;;5.47;3.53;;;;;;;10.29;93.92;100825.19;4967155;28;20078;-82
2022/04/24 06:35:40;;;;;;;5.25;3.08;;;;;;;10.46;93.37;100830.56;4964105;28;20056;-84
2022/04/24 06:38:09;;;;;;;7.00;2.88;;;;;;;10.66;93.24;100826.22;4950239;28;20070;-83
2022/04/24 06:40:38;;;;;;;5.85;3.20;;;;;;;10.73;91.96;100846.44;4949074;28;20051;-83
2022/04/24 06:43:07;;;;;;;2.97;2.58;;;;;;;10.73;92.32;100827.09;4928121;28;20059;-82
2022/04/24 06:45:41;;;;;;;;;;;;;;;10.76;90.08;100831.53;4981957;28;20413;-82
2022/04/24 06:48:11;;;;;;;3.92;3.00;;;;;;;10.74;91.02;100836.78;4962966;28;19923;-81
2022/04/24 06:50:41;;;;;;;6.07;3.25;;;;;;;10.81;90.93;100828.03;4963853;28;20508;-83
2022/04/24 06:53:13;;;;;;;3.25;2.70;;;;;;;10.91;90.57;100826.28;4950110;29;20158;-82
2022/04/24 06:55:43;;;;;;;6.65;3.10;;;;;;;11.05;90.44;100834.19;4931688;29;20039;-83
2022/04/24 06:58:15;;;;;;;4.47;2.70;;;;;;;11.29;89.84;100841.25;4961532;28;20090;-84
2022/04/24 07:00:45;;;;;;;4.78;3.00;;;;;;;11.49;88.29;100838.59;4935227;29;20070;-83
2022/04/24 07:03:34;;;;;;;4.30;3.05;;;;;;;11.68;88.39;100826.25;4963988;28;20055;-84
2022/04/24 07:06:03;;;;;;;3.55;2.83;;;;;;;11.86;88.27;100826.22;4933199;29;20234;-81
2022/04/24 07:08:33;;;;;;;6.18;2.90;;;;;;;12.00;87.21;100828.88;4965984;28;20050;-83
2022/04/24 07:11:01;;;;;;;5.97;3.40;;;;;;;12.05;86.49;100832.34;4920788;28;20607;-82
2022/04/24 07:13:32;;;;;;;5.30;3.35;;;;;;;12.12;85.12;100827.94;4933504;28;20114;-82
2022/04/24 07:16:03;;;;;;;4.25;3.35;;;;;;;12.11;84.90;100820.88;4948483;28;20040;-82
2022/04/24 07:18:31;;;;;;;4.13;3.15;;;;;;;12.18;85.19;100827.03;4951153;28;20055;-81
2022/04/24 07:21:00;;;;;;;5.85;3.55;;;;;;;12.22;84.10;100832.28;4947082;29;20070;-82
2022/04/24 07:23:31;;;;;;;3.90;3.25;;;;;;;12.18;82.73;100830.56;4950980;28;20040;-82
2022/04/24 07:26:00;;;;;;;3.63;3.03;;;;;;;12.06;82.24;100827.94;4963737;28;20268;-83
2022/04/24 07:28:30;;;;;;;5.13;3.58;;;;;;;12.04;82.52;100829.72;4950556;28;20035;-83
2022/04/24 07:30:59;;;;;;;4.47;3.40;;;;;;;12.13;83.10;100824.41;4899382;28;20062;-82
2022/04/24 07:33:27;;;;;;;6.00;3.53;;;;;;;12.27;83.37;100822.59;4950333;28;20051;-83
2022/04/24 07:35:56;;;;;;;8.68;3.30;;;;;;;12.33;81.95;100823.47;4948252;29;20082;-82
2022/04/24 07:38:31;;;;;;;8.55;3.75;;;;;;;12.35;80.84;100817.28;4952597;28;20052;-81
2022/04/24 07:41:00;;;;;;;5.30;3.53;;;;;;;12.31;79.87;100835.81;4968970;28;20241;-82
2022/04/24 07:43:29;;;;;;;5.75;3.10;;;;;;;12.25;79.09;100823.50;4930457;29;20046;-83
2022/04/24 07:45:58;;;;;;;6.68;3.63;;;;;;;12.18;78.62;100822.63;4947201;28;20302;-82
2022/04/24 07:48:27;;;;;;;4.50;3.35;;;;;;;12.22;78.03;100824.38;4966644;28;20044;-82
2022/04/24 07:50:57;;;;;;;5.35;3.20;;;;;;;12.23;77.02;100833.16;4959163;28;20047;-82
2022/04/24 07:53:26;;;;;;;5.80;3.17;;;;;;;12.25;77.37;100832.28;4926227;28;20039;-82
2022/04/24 07:55:54;;;;;;;3.83;2.85;;;;;;;12.31;76.96;100819.94;4924148;29;20043;-82
2022/04/24 07:58:23;;;;;;;8.70;3.00;;;;;;;12.33;76.60;100813.75;4972835;28;20036;-83
2022/04/24 08:00:51;;;;;;;7.57;3.22;;;;;;;12.31;75.93;100817.31;4962833;28;20265;-83
2022/04/24 08:03:20;;;;;;;5.60;2.95;;;;;;;12.33;75.53;100818.19;4929369;28;20413;-83
2022/04/24 08:05:51;;;;;;;3.75;2.70;;;;;;;12.41;75.56;100816.38;4962566;28;20066;-83
2022/04/24 08:08:22;;;;;;;5.20;3.35;;;;;;;12.52;76.15;100816.31;4963751;28;20052;-83
2022/04/24 08:10:56;;;;;;;10.57;3.33;;;;;;;12.63;76.24;100819.78;4963001;28;20048;-84
2022/04/24 08:13:25;;;;;;;6.00;3.63;;;;;;;12.63;76.47;100822.44;4945982;28;20513;-83
2022/04/24 08:15:54;;;;;;;5.60;3.22;;;;;;;12.70;76.84;100828.53;4958122;28;20556;-83
2022/04/24 08:18:25;;;;;;;3.38;3.03;;;;;;;12.64;75.34;100810.94;4900744;29;20039;-83
2022/04/24 08:20:59;;;;;;;5.55;3.40;;;;;;;12.70;75.36;100821.47;4969672;28;20059;-82
2022/04/24 08:23:28;;;;;;;7.78;3.33;;;;;;;12.80;74.66;100819.69;4952817;28;20063;-83
2022/04/24 08:25:57;;;;;;;6.88;3.47;;;;;;;12.88;73.86;100818.72;4959294;28;20042;-82
2022/04/24 08:28:26;;;;;;;8.15;3.00;;;;;;;13.01;73.98;100822.19;4924424;29;20501;-82
2022/04/24 08:30:54;;;;;;;5.25;3.10;;;;;;;13.13;73.32;100823.84;4930205;29;20279;-84
2022/04/24 08:33:23;;;;;;;10.68;3.17;;;;;;;13.15;72.75;100824.69;4925869;28;20536;-84
2022/04/24 08:35:52;;;;;;;3.33;3.00;;;;;;;13.21;72.53;100824.69;4970960;28;20040;-83
2022/04/24 08:38:21;;;;;;;6.07;3.38;;;;;;;13.27;72.89;100835.22;4960622;28;20048;-83
2022/04/24 08:40:50;;;;;;;5.35;3.30;;;;;;;13.39;73.71;100834.25;4962168;28;20051;-83
2022/04/24 08:43:23;;;;;;;7.40;4.18;;;;;;;13.56;74.05;100822.66;4932430;29;20048;-84
2022/04/24 08:45:52;;;;;;;4.32;2.85;;;;;;;13.72;72.64;100836.59;4940424;28;20265;-82
2022/04/24 08:48:21;;;;;;;6.05;3.10;;;;;;;13.73;70.64;100822.47;4923318;28;20039;-82
2022/04/24 08:50:55;;;;;;;5.13;2.60;;;;;;;13.75;70.49;100818.91;4924006;28;20051;-82
2022/04/24 08:53:29;;;;;;;4.50;2.53;;;;;;;13.81;70.73;100829.44;4950599;28;20052;-82
2022/04/24 08:55:57;;;;;;;5.30;3.00;;;;;;;13.91;70.16;100835.50;4925510;29;20529;-82
2022/04/24 08:58:26;;;;;;;5.65;2.50;;;;;;;13.99;69.46;100832.81;4939723;29;20039;-82
2022/04/24 09:01:01;;;;;;;6.88;3.28;;;;;;;14.11;69.80;100834.44;4939399;28;20051;-82
2022/04/24 09:03:30;;;;;;;3.42;2.72;;;;;;;14.24;68.63;100825.44;4928006;28;20059;-80
2022/04/24 09:06:01;;;;;;;3.75;2.60;;;;;;;14.30;69.28;100822.69;4952697;28;20052;-82
2022/04/24 09:08:34;;;;;;;3.70;2.60;;;;;;;14.43;68.53;100828.72;4935284;29;20044;-82
2022/04/24 09:11:23;;;;;;;4.03;2.20;;;;;;;14.53;68.03;100826.81;4925802;29;20520;-83
2022/04/24 09:16:51;;;;;;;3.78;2.20;;;;;;;14.54;66.97;100823.28;4929134;28;21209;-81
2022/04/24 09:19:22;;;;;;;3.60;2.63;;;;;;;14.50;66.54;100821.56;4934462;29;20490;-81
2022/04/24 09:21:52;;;;;;;2.88;2.58;;;;;;;14.55;67.36;100825.03;4926834;28;20054;-82
2022/04/24 09:24:21;;;;;;;5.28;2.88;;;;;;;14.60;67.55;100829.41;4935178;28;20114;-82
2022/04/24 09:26:58;;;;;;;6.88;3.05;;;;;;;14.59;66.27;100819.72;4935746;29;20056;-81
2022/04/24 09:29:26;;;;;;;5.43;2.70;;;;;;;14.55;66.48;100825.03;4943138;28;20054;-82
2022/04/24 09:31:55;;;;;;;5.50;3.17;;;;;;;14.43;66.00;100819.00;4921610;29;20051;-82
2022/04/24 09:34:34;;;;;;;4.15;2.80;;;;;;;14.37;65.88;100819.06;4931787;29;20107;-82
2022/04/24 09:37:12;;;;;;;5.20;2.72;;;;;;;14.47;66.98;100822.47;4954160;28;20055;-82
2022/04/24 09:39:40;;;;;;;4.75;2.60;;;;;;;14.59;67.07;100827.66;4958569;28;20047;-82
2022/04/24 09:42:18;;;;;;;4.57;2.50;;;;;;;14.71;65.86;100823.09;4939450;28;20048;-82
2022/04/24 09:44:49;;;;;;;6.35;2.70;;;;;;;14.76;64.84;100831.84;4942847;28;20039;-82
2022/04/24 09:47:37;;;;;;;5.10;2.33;;;;;;;14.75;64.65;100828.31;4919772;29;20058;-80
2022/04/24 09:50:10;;;;;;;;;;;;;;;14.76;61.98;100821.22;4950205;28;20062;-81
2022/04/24 09:52:44;;;;;;;;;;;;;;;14.73;60.65;100822.16;4935715;28;19923;-82
2022/04/24 09:55:14;;;;;;;5.30;2.55;;;;;;;14.66;63.68;100823.13;4956433;28;19929;-81
2022/04/24 09:57:43;;;;;;;3.97;2.45;;;;;;;14.68;64.57;100826.63;4961515;28;20505;-82
2022/04/24 10:00:12;;;;;;;3.58;2.80;;;;;;;14.78;64.88;100824.72;4936441;28;20047;-81
2022/04/24 10:02:41;;;;;;;5.32;2.72;;;;;;;14.81;63.66;100825.56;4930821;29;20086;-82
2022/04/24 10:05:11;;;;;;;2.33;1.92;;;;;;;14.82;63.88;100830.00;4946474;29;20044;-80
2022/04/24 10:07:39;;;;;;;4.68;2.38;;;;;;;14.84;62.80;100816.72;4908318;29;20058;-81
2022/04/24 10:10:09;;;;;;;5.40;2.35;;;;;;;14.88;63.10;100828.16;4927467;29;20039;-82
2022/04/24 10:12:38;;;;;;;2.17;2.00;;;;;;;14.92;61.62;100827.19;4943112;28;20055;-82
2022/04/24 10:15:16;;;;;;;6.80;2.03;;;;;;;14.96;61.49;100821.81;4965646;28;20052;-82
2022/04/24 10:18:16;;;;;;;3.35;2.00;;;;;;;15.06;59.53;100821.66;4943866;28;20047;-81
2022/04/24 10:21:22;;;;;;;4.82;2.10;;;;;;;15.18;58.72;100824.16;4929740;29;20241;-82
2022/04/24 10:23:51;;;;;;;4.00;2.28;;;;;;;15.27;59.96;100821.31;4944943;28;20044;-84
2022/04/24 10:26:22;;;;;;;2.50;1.95;;;;;;;15.35;59.71;100815.91;4938214;28;20044;-81
2022/04/24 10:29:08;;;;;;;3.60;2.60;;;;;;;15.34;59.08;100822.09;4938329;29;20051;-80
2022/04/24 10:31:48;;;;;;;3.08;2.20;;;;;;;15.37;57.84;100828.25;4942500;29;20044;-82
2022/04/24 10:34:18;;;;;;;2.58;2.38;;;;;;;15.34;58.40;100822.09;4945588;28;20044;-80
2022/04/24 10:36:57;;;;;;;3.25;2.15;;;;;;;15.35;57.28;100831.84;4966122;28;20063;-81
2022/04/24 10:39:33;;;;;;;7.63;2.20;;;;;;;15.29;57.94;100823.94;4925089;29;20040;-81
2022/04/24 10:42:12;;;;;;;3.22;2.42;;;;;;;15.38;59.07;100829.09;4960600;28;20060;-81
2022/04/24 10:44:52;;;;;;;3.30;2.38;;;;;;;15.49;60.42;100820.97;4950387;28;20296;-80
2022/04/24 10:47:21;;;;;;;4.90;2.67;;;;;;;15.60;60.81;100821.66;4957243;28;20196;-79
2022/04/24 10:50:03;;;;;;;5.28;2.92;;;;;;;15.71;61.73;100826.78;4950896;28;20040;-81
2022/04/24 10:52:43;;;;;;;3.75;2.67;;;;;;;15.81;59.47;100823.06;4910112;28;20035;-80
2022/04/24 10:55:22;;;;;;;3.67;2.70;;;;;;;15.82;58.19;100834.56;4949465;28;20047;-80
2022/04/24 10:58:00;;;;;;;2.70;2.50;;;;;;;15.77;61.11;100826.69;4942346;28;20048;-82
2022/04/24 11:00:34;;;;;;;4.55;2.80;;;;;;;15.75;59.13;100815.22;4938679;28;20040;-82
2022/04/24 11:03:14;;;;;;;3.05;2.53;;;;;;;15.67;59.33;100825.06;4972342;28;20365;-80
2022/04/24 11:05:45;;;;;;;5.37;3.00;;;;;;;15.71;60.47;100822.34;4921837;29;20047;-82
2022/04/24 11:08:20;;;;;;;4.63;2.80;;;;;;;15.73;59.99;100825.88;4927005;28;20510;-80
2022/04/24 11:10:50;;;;;;;3.70;2.72;;;;;;;15.74;59.90;100821.41;4931897;29;20048;-80
2022/04/24 11:13:20;;;;;;;4.25;2.67;;;;;;;15.68;59.80;100821.50;4958286;28;20047;-81
2022/04/24 11:15:50;;;;;;;6.35;3.17;;;;;;;15.68;59.26;100835.66;4950735;28;20050;-81
2022/04/24 11:18:22;;;;;;;2.90;2.70;;;;;;;15.64;59.80;100828.66;4965792;28;20445;-81
2022/04/24 11:20:59;;;;;;;4.60;3.08;;;;;;;15.58;59.25;100820.81;4933266;28;20039;-81
2022/04/24 11:23:30;;;;;;;7.65;3.60;;;;;;;15.53;61.14;100820.88;4976326;28;20051;-81
2022/04/24 11:26:00;;;;;;;5.60;3.15;;;;;;;15.50;61.69;100820.94;4953627;28;20051;-80
2022/04/24 11:28:43;;;;;;;5.50;3.22;;;;;;;15.51;61.81;100819.16;4980130;28;20043;-81
2022/04/24 11:31:17;;;;;;;8.15;3.28;;;;;;;15.45;61.41;100820.13;4974136;28;20044;-81
2022/04/24 11:34:00;;;;;;;5.30;3.50;;;;;;;15.49;62.43;100829.81;4964168;28;20401;-81
2022/04/24 11:36:35;;;;;;;5.50;3.33;;;;;;;15.58;62.10;100836.75;4929004;29;20133;-82
2022/04/24 11:39:08;;;;;;;5.65;3.60;;;;;;;15.67;62.26;100825.94;4960743;28;20272;-82
2022/04/24 11:41:38;;;;;;;5.07;3.40;;;;;;;15.74;62.47;100826.72;4945625;28;20055;-81
2022/04/24 11:50:13;;;;;;;4.30;3.38;;;;;;;15.81;61.90;100817.75;4941335;28;20879;-81
2022/04/24 11:53:03;;;;;;;5.18;3.47;;;;;;;15.91;63.08;100819.31;4925261;29;20051;-83